sensor_id;sensor_type;location;lat;lon;timestamp;pressure;altitude;pressure_sealevel;temperature;humidity
21182;BME280;10749;46.296;7.524;2022-07-23T00:01:26;95042.69;;;29.57;30.76
21182;BME280;10749;46.296;7.524;2022-07-23T00:03:52;95043.84;;;29.69;30.28
21182;BME280;10749;46.296;7.524;2022-07-23T00:06:19;95041.88;;;29.56;31.02
21182;BME280;10749;46.296;7.524;2022-07-23T00:08:44;95031.47;;;29.58;31.26
21182;BME280;10749;46.296;7.524;2022-07-23T00:11:10;95036.31;;;29.61;31.30
21182;BME280;10749;46.296;7.524;2022-07-23T00:13:35;95027.47;;;29.51;31.51
21182;BME280;10749;46.296;7.524;2022-07-23T00:16:01;95021.06;;;29.42;32.20
21182;BME280;10749;46.296;7.524;2022-07-23T00:18:26;95007.56;;;29.31;31.67
21182;BME280;10749;46.296;7.524;2022-07-23T00:20:52;95005.13;;;29.06;32.76
21182;BME280;10749;46.296;7.524;2022-07-23T00:23:17;94997.22;;;28.86;33.36
21182;BME280;10749;46.296;7.524;2022-07-23T00:25:43;94987.91;;;28.87;33.22
21182;BME280;10749;46.296;7.524;2022-07-23T00:28:10;94981.97;;;28.85;33.50
21182;BME280;10749;46.296;7.524;2022-07-23T00:30:35;94974.25;;;28.92;33.95
21182;BME280;10749;46.296;7.524;2022-07-23T00:33:03;94966.72;;;28.84;33.29
21182;BME280;10749;46.296;7.524;2022-07-23T00:35:31;94963.53;;;28.77;33.22
21182;BME280;10749;46.296;7.524;2022-07-23T00:37:58;94954.00;;;28.51;34.54
21182;BME280;10749;46.296;7.524;2022-07-23T00:40:24;94955.25;;;28.34;34.96
21182;BME280;10749;46.296;7.524;2022-07-23T00:42:50;94946.91;;;28.26;34.97
21182;BME280;10749;46.296;7.524;2022-07-23T00:45:16;94942.94;;;28.13;35.12
21182;BME280;10749;46.296;7.524;2022-07-23T00:47:41;94942.44;;;28.06;36.25
21182;BME280;10749;46.296;7.524;2022-07-23T00:50:08;94944.72;;;27.94;35.47
21182;BME280;10749;46.296;7.524;2022-07-23T00:52:35;94940.91;;;27.95;36.63
21182;BME280;10749;46.296;7.524;2022-07-23T00:55:01;94936.56;;;27.94;35.73
21182;BME280;10749;46.296;7.524;2022-07-23T00:57:26;94940.38;;;27.93;35.90
21182;BME280;10749;46.296;7.524;2022-07-23T00:59:52;94931.16;;;27.89;35.92
21182;BME280;10749;46.296;7.524;2022-07-23T01:02:17;94929.31;;;27.84;35.82
21182;BME280;10749;46.296;7.524;2022-07-23T01:04:42;94937.13;;;27.62;36.00
21182;BME280;10749;46.296;7.524;2022-07-23T01:07:08;94928.41;;;27.60;37.27
21182;BME280;10749;46.296;7.524;2022-07-23T01:09:33;94926.66;;;27.35;38.31
21182;BME280;10749;46.296;7.524;2022-07-23T01:11:59;94925.56;;;27.36;38.64
21182;BME280;10749;46.296;7.524;2022-07-23T01:14:25;94929.38;;;27.35;37.94
21182;BME280;10749;46.296;7.524;2022-07-23T01:16:50;94920.97;;;27.32;38.52
21182;BME280;10749;46.296;7.524;2022-07-23T01:19:16;94927.69;;;27.44;37.35
21182;BME280;10749;46.296;7.524;2022-07-23T01:21:44;94940.59;;;27.68;37.47
21182;BME280;10749;46.296;7.524;2022-07-23T01:24:10;94940.56;;;27.73;37.20
21182;BME280;10749;46.296;7.524;2022-07-23T01:26:37;94948.16;;;27.71;37.04
21182;BME280;10749;46.296;7.524;2022-07-23T01:29:03;94953.28;;;27.77;37.34
21182;BME280;10749;46.296;7.524;2022-07-23T01:31:29;94957.31;;;27.85;37.25
21182;BME280;10749;46.296;7.524;2022-07-23T01:33:54;94970.47;;;27.73;37.21
21182;BME280;10749;46.296;7.524;2022-07-23T01:36:20;94978.06;;;27.71;37.10
21182;BME280;10749;46.296;7.524;2022-07-23T01:38:45;94988.44;;;27.69;36.44
21182;BME280;10749;46.296;7.524;2022-07-23T01:41:11;94999.41;;;27.53;36.98
21182;BME280;10749;46.296;7.524;2022-07-23T01:43:36;95012.22;;;27.48;37.14
21182;BME280;10749;46.296;7.524;2022-07-23T01:46:01;95012.53;;;27.36;37.62
21182;BME280;10749;46.296;7.524;2022-07-23T01:48:27;95015.50;;;27.40;37.21
21182;BME280;10749;46.296;7.524;2022-07-23T01:50:52;95022.84;;;27.34;36.65
21182;BME280;10749;46.296;7.524;2022-07-23T01:53:17;95016.09;;;27.27;36.64
21182;BME280;10749;46.296;7.524;2022-07-23T01:55:43;95030.28;;;27.19;36.45
21182;BME280;10749;46.296;7.524;2022-07-23T01:58:08;95032.81;;;27.00;38.24
21182;BME280;10749;46.296;7.524;2022-07-23T02:00:34;95031.47;;;26.82;38.02
21182;BME280;10749;46.296;7.524;2022-07-23T02:02:59;95044.75;;;26.84;38.08
21182;BME280;10749;46.296;7.524;2022-07-23T02:05:25;95060.22;;;26.98;37.82
21182;BME280;10749;46.296;7.524;2022-07-23T02:07:51;95074.56;;;27.14;38.17
21182;BME280;10749;46.296;7.524;2022-07-23T02:10:17;95094.06;;;27.31;38.52
21182;BME280;10749;46.296;7.524;2022-07-23T02:12:42;95095.13;;;27.45;38.41
21182;BME280;10749;46.296;7.524;2022-07-23T02:15:08;95101.63;;;27.44;37.84
21182;BME280;10749;46.296;7.524;2022-07-23T02:17:33;95097.81;;;27.50;37.78
21182;BME280;10749;46.296;7.524;2022-07-23T02:19:58;95105.66;;;27.62;37.83
21182;BME280;10749;46.296;7.524;2022-07-23T02:22:24;95108.09;;;27.64;37.96
21182;BME280;10749;46.296;7.524;2022-07-23T02:24:49;95118.94;;;27.69;37.83
21182;BME280;10749;46.296;7.524;2022-07-23T02:27:14;95122.47;;;27.69;37.88
21182;BME280;10749;46.296;7.524;2022-07-23T02:29:40;95133.03;;;27.76;37.84
21182;BME280;10749;46.296;7.524;2022-07-23T02:32:05;95135.50;;;27.77;37.99
21182;BME280;10749;46.296;7.524;2022-07-23T02:34:30;95134.34;;;27.83;37.75
21182;BME280;10749;46.296;7.524;2022-07-23T02:36:56;95143.63;;;27.82;38.08
21182;BME280;10749;46.296;7.524;2022-07-23T02:39:21;95161.38;;;27.70;38.70
21182;BME280;10749;46.296;7.524;2022-07-23T02:41:46;95167.63;;;27.70;38.11
21182;BME280;10749;46.296;7.524;2022-07-23T02:44:12;95177.94;;;27.73;38.34
21182;BME280;10749;46.296;7.524;2022-07-23T02:46:37;95191.78;;;27.72;38.48
21182;BME280;10749;46.296;7.524;2022-07-23T02:49:02;95211.63;;;27.77;38.51
21182;BME280;10749;46.296;7.524;2022-07-23T02:51:29;95229.53;;;27.83;38.68
21182;BME280;10749;46.296;7.524;2022-07-23T02:53:55;95229.81;;;27.87;38.76
21182;BME280;10749;46.296;7.524;2022-07-23T02:56:20;95227.63;;;27.84;39.00
21182;BME280;10749;46.296;7.524;2022-07-23T02:58:45;95239.09;;;27.71;40.23
21182;BME280;10749;46.296;7.524;2022-07-23T03:01:11;95254.38;;;27.57;40.22
21182;BME280;10749;46.296;7.524;2022-07-23T03:03:36;95250.31;;;27.39;40.16
21182;BME280;10749;46.296;7.524;2022-07-23T03:06:01;95248.72;;;27.02;40.51
21182;BME280;10749;46.296;7.524;2022-07-23T03:08:27;95245.72;;;26.89;40.38
21182;BME280;10749;46.296;7.524;2022-07-23T03:10:52;95252.22;;;26.78;41.96
21182;BME280;10749;46.296;7.524;2022-07-23T03:13:17;95222.88;;;26.80;42.12
21182;BME280;10749;46.296;7.524;2022-07-23T03:15:43;95171.31;;;26.75;40.90
21182;BME280;10749;46.296;7.524;2022-07-23T03:18:08;95159.91;;;26.57;43.87
21182;BME280;10749;46.296;7.524;2022-07-23T03:20:33;95173.47;;;26.47;44.03
21182;BME280;10749;46.296;7.524;2022-07-23T03:22:59;95160.41;;;26.19;45.07
21182;BME280;10749;46.296;7.524;2022-07-23T03:25:24;95149.50;;;25.99;44.70
21182;BME280;10749;46.296;7.524;2022-07-23T03:27:49;95162.56;;;26.12;45.06
21182;BME280;10749;46.296;7.524;2022-07-23T03:30:15;95176.72;;;26.24;45.35
21182;BME280;10749;46.296;7.524;2022-07-23T03:32:40;95196.81;;;26.33;44.28
21182;BME280;10749;46.296;7.524;2022-07-23T03:35:06;95204.66;;;26.35;45.76
21182;BME280;10749;46.296;7.524;2022-07-23T03:37:31;95195.16;;;26.22;46.29
21182;BME280;10749;46.296;7.524;2022-07-23T03:39:56;95182.06;;;25.99;46.09
21182;BME280;10749;46.296;7.524;2022-07-23T03:42:22;95164.63;;;25.75;46.14
21182;BME280;10749;46.296;7.524;2022-07-23T03:44:47;95165.56;;;25.48;46.43
21182;BME280;10749;46.296;7.524;2022-07-23T03:47:12;95159.03;;;25.34;46.45
21182;BME280;10749;46.296;7.524;2022-07-23T03:49:38;95150.38;;;25.37;46.22
21182;BME280;10749;46.296;7.524;2022-07-23T03:52:03;95151.06;;;25.69;46.95
21182;BME280;10749;46.296;7.524;2022-07-23T03:54:29;95148.16;;;26.01;47.35
21182;BME280;10749;46.296;7.524;2022-07-23T03:56:54;95145.75;;;26.15;48.09
21182;BME280;10749;46.296;7.524;2022-07-23T03:59:20;95137.06;;;26.13;46.76
21182;BME280;10749;46.296;7.524;2022-07-23T04:01:46;95139.50;;;26.04;46.19
21182;BME280;10749;46.296;7.524;2022-07-23T04:04:11;95123.19;;;25.94;46.72
21182;BME280;10749;46.296;7.524;2022-07-23T04:06:37;95115.88;;;25.95;46.36
21182;BME280;10749;46.296;7.524;2022-07-23T04:09:02;95106.38;;;25.82;46.98
21182;BME280;10749;46.296;7.524;2022-07-23T04:11:28;95101.16;;;25.60;46.04
21182;BME280;10749;46.296;7.524;2022-07-23T04:13:53;95104.94;;;25.59;47.55
21182;BME280;10749;46.296;7.524;2022-07-23T04:16:18;95123.41;;;25.67;47.60
21182;BME280;10749;46.296;7.524;2022-07-23T04:18:44;95111.75;;;25.62;48.13
21182;BME280;10749;46.296;7.524;2022-07-23T04:21:09;95117.88;;;25.47;48.23
21182;BME280;10749;46.296;7.524;2022-07-23T04:23:34;95117.97;;;25.57;48.46
21182;BME280;10749;46.296;7.524;2022-07-23T04:26:00;95117.41;;;25.60;47.72
21182;BME280;10749;46.296;7.524;2022-07-23T04:28:25;95121.16;;;25.49;47.37
21182;BME280;10749;46.296;7.524;2022-07-23T04:30:51;95121.63;;;25.36;46.50
21182;BME280;10749;46.296;7.524;2022-07-23T04:33:16;95126.75;;;25.27;47.36
21182;BME280;10749;46.296;7.524;2022-07-23T04:35:41;95123.69;;;25.14;47.74
21182;BME280;10749;46.296;7.524;2022-07-23T04:38:07;95136.69;;;25.12;48.44
21182;BME280;10749;46.296;7.524;2022-07-23T04:40:32;95144.09;;;25.32;48.48
21182;BME280;10749;46.296;7.524;2022-07-23T04:42:57;95152.97;;;25.22;49.73
21182;BME280;10749;46.296;7.524;2022-07-23T04:45:23;95150.75;;;25.09;48.70
21182;BME280;10749;46.296;7.524;2022-07-23T04:47:49;95146.88;;;24.95;48.22
21182;BME280;10749;46.296;7.524;2022-07-23T04:50:15;95136.63;;;25.02;48.08
21182;BME280;10749;46.296;7.524;2022-07-23T04:52:44;95126.91;;;25.06;47.64
21182;BME280;10749;46.296;7.524;2022-07-23T04:55:09;95127.97;;;25.00;48.65
21182;BME280;10749;46.296;7.524;2022-07-23T04:57:35;95129.00;;;24.89;47.50
21182;BME280;10749;46.296;7.524;2022-07-23T05:00:00;95117.88;;;24.90;47.17
21182;BME280;10749;46.296;7.524;2022-07-23T05:02:26;95098.16;;;24.95;46.86
21182;BME280;10749;46.296;7.524;2022-07-23T05:04:51;95098.91;;;24.85;47.77
21182;BME280;10749;46.296;7.524;2022-07-23T05:07:16;95109.75;;;24.90;47.37
21182;BME280;10749;46.296;7.524;2022-07-23T05:09:41;95105.97;;;24.91;47.57
21182;BME280;10749;46.296;7.524;2022-07-23T05:12:07;95101.44;;;25.07;47.07
21182;BME280;10749;46.296;7.524;2022-07-23T05:14:32;95092.28;;;25.13;46.92
21182;BME280;10749;46.296;7.524;2022-07-23T05:16:58;95089.03;;;25.16;46.73
21182;BME280;10749;46.296;7.524;2022-07-23T05:19:23;95089.63;;;25.28;47.37
21182;BME280;10749;46.296;7.524;2022-07-23T05:21:48;95098.06;;;25.37;47.50
21182;BME280;10749;46.296;7.524;2022-07-23T05:24:14;95096.28;;;25.57;46.87
21182;BME280;10749;46.296;7.524;2022-07-23T05:26:39;95100.63;;;25.63;47.27
21182;BME280;10749;46.296;7.524;2022-07-23T05:29:04;95100.38;;;25.70;46.74
21182;BME280;10749;46.296;7.524;2022-07-23T05:31:30;95093.34;;;25.79;46.39
21182;BME280;10749;46.296;7.524;2022-07-23T05:33:55;95100.69;;;25.84;46.18
21182;BME280;10749;46.296;7.524;2022-07-23T05:36:20;95097.41;;;25.82;46.67
21182;BME280;10749;46.296;7.524;2022-07-23T05:38:46;95099.81;;;25.73;46.97
21182;BME280;10749;46.296;7.524;2022-07-23T05:41:11;95102.78;;;25.61;46.65
21182;BME280;10749;46.296;7.524;2022-07-23T05:43:36;95109.03;;;25.72;46.64
21182;BME280;10749;46.296;7.524;2022-07-23T05:46:02;95114.44;;;25.62;46.09
21182;BME280;10749;46.296;7.524;2022-07-23T05:48:27;95114.69;;;25.55;45.46
21182;BME280;10749;46.296;7.524;2022-07-23T05:50:52;95111.38;;;25.48;46.11
21182;BME280;10749;46.296;7.524;2022-07-23T05:53:18;95108.41;;;25.50;45.77
21182;BME280;10749;46.296;7.524;2022-07-23T05:55:43;95107.72;;;25.75;45.97
21182;BME280;10749;46.296;7.524;2022-07-23T05:58:08;95113.97;;;25.90;45.85
21182;BME280;10749;46.296;7.524;2022-07-23T06:00:34;95127.25;;;25.97;45.60
21182;BME280;10749;46.296;7.524;2022-07-23T06:02:59;95125.66;;;26.11;45.92
21182;BME280;10749;46.296;7.524;2022-07-23T06:05:25;95127.59;;;26.26;45.87
21182;BME280;10749;46.296;7.524;2022-07-23T06:07:50;95135.47;;;26.32;45.43
21182;BME280;10749;46.296;7.524;2022-07-23T06:10:15;95134.41;;;26.33;45.75
21182;BME280;10749;46.296;7.524;2022-07-23T06:12:41;95134.13;;;26.40;45.59
21182;BME280;10749;46.296;7.524;2022-07-23T06:15:07;95133.06;;;26.46;45.28
21182;BME280;10749;46.296;7.524;2022-07-23T06:17:32;95124.91;;;26.46;45.75
21182;BME280;10749;46.296;7.524;2022-07-23T06:19:58;95126.81;;;26.45;45.58
21182;BME280;10749;46.296;7.524;2022-07-23T06:22:23;95130.88;;;26.48;45.66
21182;BME280;10749;46.296;7.524;2022-07-23T06:24:49;95128.97;;;26.48;45.43
21182;BME280;10749;46.296;7.524;2022-07-23T06:27:15;95129.53;;;26.45;45.83
21182;BME280;10749;46.296;7.524;2022-07-23T06:29:41;95135.47;;;26.42;45.99
21182;BME280;10749;46.296;7.524;2022-07-23T06:32:07;95119.75;;;26.39;46.20
21182;BME280;10749;46.296;7.524;2022-07-23T06:34:33;95117.59;;;26.41;45.92
21182;BME280;10749;46.296;7.524;2022-07-23T06:36:59;95123.84;;;26.42;45.94
21182;BME280;10749;46.296;7.524;2022-07-23T06:39:25;95128.44;;;26.36;46.15
21182;BME280;10749;46.296;7.524;2022-07-23T06:41:50;95125.97;;;26.35;46.01
21182;BME280;10749;46.296;7.524;2022-07-23T06:44:16;95124.88;;;26.26;46.65
21182;BME280;10749;46.296;7.524;2022-07-23T06:46:41;95117.81;;;26.14;46.83
21182;BME280;10749;46.296;7.524;2022-07-23T06:49:07;95123.75;;;26.01;46.45
21182;BME280;10749;46.296;7.524;2022-07-23T06:51:32;95125.09;;;25.99;47.09
21182;BME280;10749;46.296;7.524;2022-07-23T06:53:57;95118.06;;;26.03;46.81
21182;BME280;10749;46.296;7.524;2022-07-23T06:56:23;95118.59;;;26.10;46.96
21182;BME280;10749;46.296;7.524;2022-07-23T06:58:48;95116.47;;;26.17;46.98
21182;BME280;10749;46.296;7.524;2022-07-23T07:01:14;95114.25;;;26.14;47.19
21182;BME280;10749;46.296;7.524;2022-07-23T07:03:39;95126.78;;;26.20;47.37
21182;BME280;10749;46.296;7.524;2022-07-23T07:06:04;95129.53;;;26.25;47.01
21182;BME280;10749;46.296;7.524;2022-07-23T07:08:30;95125.13;;;26.19;46.35
21182;BME280;10749;46.296;7.524;2022-07-23T07:10:55;95128.44;;;26.36;46.01
21182;BME280;10749;46.296;7.524;2022-07-23T07:13:20;95125.72;;;26.56;45.77
21182;BME280;10749;46.296;7.524;2022-07-23T07:15:46;95129.47;;;26.76;45.52
21182;BME280;10749;46.296;7.524;2022-07-23T07:18:11;95133.31;;;26.95;45.59
21182;BME280;10749;46.296;7.524;2022-07-23T07:20:36;95129.47;;;27.06;45.58
21182;BME280;10749;46.296;7.524;2022-07-23T07:23:02;95124.03;;;27.16;45.03
21182;BME280;10749;46.296;7.524;2022-07-23T07:25:27;95119.13;;;27.13;45.13
21182;BME280;10749;46.296;7.524;2022-07-23T07:27:52;95117.97;;;27.39;44.88
21182;BME280;10749;46.296;7.524;2022-07-23T07:30:17;95126.31;;;27.63;45.07
21182;BME280;10749;46.296;7.524;2022-07-23T07:32:43;95125.00;;;27.50;44.24
21182;BME280;10749;46.296;7.524;2022-07-23T07:35:08;95132.94;;;27.27;44.04
21182;BME280;10749;46.296;7.524;2022-07-23T07:37:34;95120.97;;;27.33;44.26
21182;BME280;10749;46.296;7.524;2022-07-23T07:39:59;95125.81;;;27.51;44.44
21182;BME280;10749;46.296;7.524;2022-07-23T07:42:25;95125.19;;;27.74;44.15
21182;BME280;10749;46.296;7.524;2022-07-23T07:44:50;95119.91;;;27.93;44.34
21182;BME280;10749;46.296;7.524;2022-07-23T07:47:15;95113.28;;;28.04;44.05
21182;BME280;10749;46.296;7.524;2022-07-23T07:49:42;95117.88;;;28.14;44.02
21182;BME280;10749;46.296;7.524;2022-07-23T07:52:08;95109.69;;;28.19;43.76
21182;BME280;10749;46.296;7.524;2022-07-23T07:54:33;95116.50;;;28.16;43.92
21182;BME280;10749;46.296;7.524;2022-07-23T07:56:59;95104.97;;;28.29;43.97
21182;BME280;10749;46.296;7.524;2022-07-23T07:59:24;95100.22;;;28.45;43.94
21182;BME280;10749;46.296;7.524;2022-07-23T08:01:50;95093.13;;;28.49;43.40
21182;BME280;10749;46.296;7.524;2022-07-23T08:04:15;95090.22;;;28.40;43.40
21182;BME280;10749;46.296;7.524;2022-07-23T08:06:41;95097.81;;;28.43;43.44
21182;BME280;10749;46.296;7.524;2022-07-23T08:09:06;95098.28;;;28.51;43.46
21182;BME280;10749;46.296;7.524;2022-07-23T08:11:31;95096.91;;;28.53;43.15
21182;BME280;10749;46.296;7.524;2022-07-23T08:13:56;95096.03;;;28.58;43.21
21182;BME280;10749;46.296;7.524;2022-07-23T08:16:22;95086.69;;;28.69;43.09
21182;BME280;10749;46.296;7.524;2022-07-23T08:18:47;95089.56;;;28.82;42.84
21182;BME280;10749;46.296;7.524;2022-07-23T08:21:12;95085.34;;;28.95;42.77
21182;BME280;10749;46.296;7.524;2022-07-23T08:23:38;95088.84;;;29.01;42.48
21182;BME280;10749;46.296;7.524;2022-07-23T08:26:03;95083.84;;;29.08;42.24
21182;BME280;10749;46.296;7.524;2022-07-23T08:28:28;95083.84;;;28.84;41.59
21182;BME280;10749;46.296;7.524;2022-07-23T08:30:54;95079.66;;;28.92;41.83
21182;BME280;10749;46.296;7.524;2022-07-23T08:33:19;95092.44;;;28.96;41.44
21182;BME280;10749;46.296;7.524;2022-07-23T08:35:47;95084.06;;;29.11;41.64
21182;BME280;10749;46.296;7.524;2022-07-23T08:38:14;95087.09;;;29.10;41.67
21182;BME280;10749;46.296;7.524;2022-07-23T08:40:43;95078.63;;;29.11;41.45
21182;BME280;10749;46.296;7.524;2022-07-23T08:43:12;95075.41;;;29.09;41.55
21182;BME280;10749;46.296;7.524;2022-07-23T08:45:40;95067.97;;;29.15;41.34
21182;BME280;10749;46.296;7.524;2022-07-23T08:48:12;95079.06;;;29.23;41.21
21182;BME280;10749;46.296;7.524;2022-07-23T08:50:42;95078.28;;;29.18;41.05
21182;BME280;10749;46.296;7.524;2022-07-23T08:53:08;95072.47;;;29.24;41.21
21182;BME280;10749;46.296;7.524;2022-07-23T08:55:33;95075.75;;;29.26;41.43
21182;BME280;10749;46.296;7.524;2022-07-23T08:57:59;95060.47;;;29.25;40.51
21182;BME280;10749;46.296;7.524;2022-07-23T09:00:24;95066.81;;;29.21;41.17
21182;BME280;10749;46.296;7.524;2022-07-23T09:02:50;95073.06;;;29.45;41.05
21182;BME280;10749;46.296;7.524;2022-07-23T09:05:16;95058.44;;;29.60;40.63
21182;BME280;10749;46.296;7.524;2022-07-23T09:10:29;95053.81;;;29.60;40.27
21182;BME280;10749;46.296;7.524;2022-07-23T09:12:54;95051.16;;;29.74;40.42
21182;BME280;10749;46.296;7.524;2022-07-23T09:15:20;95051.19;;;29.93;40.47
21182;BME280;10749;46.296;7.524;2022-07-23T09:17:45;95051.03;;;30.03;40.20
21182;BME280;10749;46.296;7.524;2022-07-23T09:20:13;95044.25;;;30.00;39.77
21182;BME280;10749;46.296;7.524;2022-07-23T09:22:44;95038.38;;;29.93;39.65
21182;BME280;10749;46.296;7.524;2022-07-23T09:25:13;95043.88;;;29.88;39.73
21182;BME280;10749;46.296;7.524;2022-07-23T09:30:10;95045.28;;;29.86;39.26
21182;BME280;10749;46.296;7.524;2022-07-23T09:32:35;95039.94;;;29.75;39.22
21182;BME280;10749;46.296;7.524;2022-07-23T09:35:02;95038.09;;;29.71;39.04
21182;BME280;10749;46.296;7.524;2022-07-23T09:37:27;95028.84;;;29.06;38.50
21182;BME280;10749;46.296;7.524;2022-07-23T09:40:06;95025.94;;;28.97;39.60
21182;BME280;10749;46.296;7.524;2022-07-23T09:42:32;95034.97;;;29.16;39.51
21182;BME280;10749;46.296;7.524;2022-07-23T09:44:58;95032.28;;;29.40;39.33
21182;BME280;10749;46.296;7.524;2022-07-23T09:47:29;95028.38;;;29.65;39.66
21182;BME280;10749;46.296;7.524;2022-07-23T09:50:01;95030.81;;;29.85;39.42
21182;BME280;10749;46.296;7.524;2022-07-23T09:52:35;95025.66;;;29.84;38.99
21182;BME280;10749;46.296;7.524;2022-07-23T09:55:05;95025.91;;;29.45;39.39
21182;BME280;10749;46.296;7.524;2022-07-23T09:57:32;95025.06;;;29.68;39.25
21182;BME280;10749;46.296;7.524;2022-07-23T10:00:00;95016.81;;;29.73;39.32
21182;BME280;10749;46.296;7.524;2022-07-23T10:02:27;95019.38;;;29.83;39.07
21182;BME280;10749;46.296;7.524;2022-07-23T10:04:54;95016.59;;;29.88;38.51
21182;BME280;10749;46.296;7.524;2022-07-23T10:07:21;95015.25;;;29.86;38.33
21182;BME280;10749;46.296;7.524;2022-07-23T10:09:49;95015.53;;;29.84;38.41
21182;BME280;10749;46.296;7.524;2022-07-23T10:12:17;95008.84;;;29.95;38.47
21182;BME280;10749;46.296;7.524;2022-07-23T10:14:46;95015.47;;;29.52;36.85
21182;BME280;10749;46.296;7.524;2022-07-23T10:17:12;95000.09;;;29.61;38.05
21182;BME280;10749;46.296;7.524;2022-07-23T10:19:38;95006.53;;;29.84;38.18
21182;BME280;10749;46.296;7.524;2022-07-23T10:22:18;95011.38;;;29.92;38.30
21182;BME280;10749;46.296;7.524;2022-07-23T10:30:22;94996.56;;;30.11;38.49
21182;BME280;10749;46.296;7.524;2022-07-23T10:33:12;95003.38;;;30.14;38.23
21182;BME280;10749;46.296;7.524;2022-07-23T10:36:02;94993.78;;;30.16;38.08
21182;BME280;10749;46.296;7.524;2022-07-23T10:38:58;94986.34;;;30.03;37.83
21182;BME280;10749;46.296;7.524;2022-07-23T10:41:37;94991.66;;;29.95;38.13
21182;BME280;10749;46.296;7.524;2022-07-23T10:44:15;94989.06;;;30.03;37.79
21182;BME280;10749;46.296;7.524;2022-07-23T10:46:54;94984.34;;;30.09;38.07
21182;BME280;10749;46.296;7.524;2022-07-23T10:49:38;94994.88;;;30.15;37.65
21182;BME280;10749;46.296;7.524;2022-07-23T10:54:40;94983.22;;;30.42;37.49
21182;BME280;10749;46.296;7.524;2022-07-23T10:57:07;94973.16;;;30.56;37.25
21182;BME280;10749;46.296;7.524;2022-07-23T11:02:38;94974.16;;;30.47;36.32
21182;BME280;10749;46.296;7.524;2022-07-23T11:05:06;94965.28;;;30.55;36.72
21182;BME280;10749;46.296;7.524;2022-07-23T11:07:33;94965.38;;;30.77;37.00
21182;BME280;10749;46.296;7.524;2022-07-23T11:09:58;94957.59;;;30.84;36.56
21182;BME280;10749;46.296;7.524;2022-07-23T11:15:12;94959.00;;;30.82;36.73
21182;BME280;10749;46.296;7.524;2022-07-23T11:17:57;94959.22;;;30.85;36.37
21182;BME280;10749;46.296;7.524;2022-07-23T11:20:25;94962.03;;;30.94;36.76
21182;BME280;10749;46.296;7.524;2022-07-23T11:22:58;94947.78;;;31.10;36.21
21182;BME280;10749;46.296;7.524;2022-07-23T11:28:08;94944.41;;;31.41;36.02
21182;BME280;10749;46.296;7.524;2022-07-23T11:30:42;94948.50;;;31.52;35.78
21182;BME280;10749;46.296;7.524;2022-07-23T11:35:34;94940.63;;;31.86;35.66
21182;BME280;10749;46.296;7.524;2022-07-23T11:38:14;94936.00;;;32.09;36.01
21182;BME280;10749;46.296;7.524;2022-07-23T11:40:40;94927.22;;;32.21;35.60
21182;BME280;10749;46.296;7.524;2022-07-23T11:43:08;94929.66;;;32.31;35.13
21182;BME280;10749;46.296;7.524;2022-07-23T11:45:39;94933.38;;;32.35;35.13
21182;BME280;10749;46.296;7.524;2022-07-23T11:48:08;94923.88;;;32.32;34.05
21182;BME280;10749;46.296;7.524;2022-07-23T11:50:33;94916.81;;;32.40;34.69
21182;BME280;10749;46.296;7.524;2022-07-23T11:52:59;94916.19;;;32.43;34.29
21182;BME280;10749;46.296;7.524;2022-07-23T11:55:25;94915.94;;;32.53;33.38
21182;BME280;10749;46.296;7.524;2022-07-23T11:57:52;94915.69;;;32.63;33.67
21182;BME280;10749;46.296;7.524;2022-07-23T12:00:20;94908.66;;;32.79;33.67
21182;BME280;10749;46.296;7.524;2022-07-23T12:02:49;94918.50;;;32.89;32.94
21182;BME280;10749;46.296;7.524;2022-07-23T12:05:17;94905.09;;;32.79;33.27
21182;BME280;10749;46.296;7.524;2022-07-23T12:07:44;94905.75;;;32.84;32.99
21182;BME280;10749;46.296;7.524;2022-07-23T12:12:43;94896.19;;;32.65;32.30
21182;BME280;10749;46.296;7.524;2022-07-23T12:15:11;94893.59;;;32.68;31.85
21182;BME280;10749;46.296;7.524;2022-07-23T12:17:38;94892.88;;;32.93;32.12
21182;BME280;10749;46.296;7.524;2022-07-23T12:20:07;94897.09;;;33.00;32.06
21182;BME280;10749;46.296;7.524;2022-07-23T12:22:36;94890.88;;;33.16;32.12
21182;BME280;10749;46.296;7.524;2022-07-23T12:25:13;94895.34;;;33.12;31.82
21182;BME280;10749;46.296;7.524;2022-07-23T12:27:40;94888.38;;;32.97;31.37
21182;BME280;10749;46.296;7.524;2022-07-23T12:30:22;94884.84;;;33.06;32.29
21182;BME280;10749;46.296;7.524;2022-07-23T12:32:50;94882.41;;;32.95;31.85
21182;BME280;10749;46.296;7.524;2022-07-23T12:35:16;94879.34;;;32.97;32.07
21182;BME280;10749;46.296;7.524;2022-07-23T12:37:43;94889.06;;;33.12;32.20
21182;BME280;10749;46.296;7.524;2022-07-23T12:42:54;94882.50;;;33.47;31.84
21182;BME280;10749;46.296;7.524;2022-07-23T12:45:20;94873.31;;;33.60;32.06
21182;BME280;10749;46.296;7.524;2022-07-23T12:47:57;94880.44;;;33.78;32.11
21182;BME280;10749;46.296;7.524;2022-07-23T12:55:45;94865.66;;;34.09;31.87
21182;BME280;10749;46.296;7.524;2022-07-23T12:58:16;94855.63;;;34.21;31.47
21182;BME280;10749;46.296;7.524;2022-07-23T13:00:57;94858.84;;;34.32;31.63
21182;BME280;10749;46.296;7.524;2022-07-23T13:03:24;94864.22;;;34.20;31.06
21182;BME280;10749;46.296;7.524;2022-07-23T13:05:50;94857.25;;;34.14;30.99
21182;BME280;10749;46.296;7.524;2022-07-23T13:08:15;94861.50;;;34.03;30.94
21182;BME280;10749;46.296;7.524;2022-07-23T13:10:41;94856.97;;;34.07;31.36
21182;BME280;10749;46.296;7.524;2022-07-23T13:13:10;94867.63;;;34.08;30.78
21182;BME280;10749;46.296;7.524;2022-07-23T13:15:35;94850.63;;;34.15;31.01
21182;BME280;10749;46.296;7.524;2022-07-23T13:18:00;94852.38;;;34.37;31.43
21182;BME280;10749;46.296;7.524;2022-07-23T13:20:26;94852.00;;;34.47;31.07
21182;BME280;10749;46.296;7.524;2022-07-23T13:22:51;94841.84;;;34.39;30.89
21182;BME280;10749;46.296;7.524;2022-07-23T13:25:17;94835.16;;;34.19;30.63
21182;BME280;10749;46.296;7.524;2022-07-23T13:27:42;94852.97;;;33.96;30.58
21182;BME280;10749;46.296;7.524;2022-07-23T13:30:08;94840.56;;;33.72;30.38
21182;BME280;10749;46.296;7.524;2022-07-23T13:32:35;94843.63;;;33.62;30.94